Time;durP1;ratioP1;P1;durP2;ratioP2;P2;SDS_P1;SDS_P2;PMS_P1;PMS_P2;Temp;Humidity;BMP_temperature;BMP_pressure;BME280_temperature;BME280_humidity;BME280_pressure;Samples;Min_cycle;Max_cycle;Signal;HPM_P1;HPM_P2
2023/01/17 00:01:07;;;;;;;0.10;0.10;;;3.90;99.90;;;;;;4199919;28;20076;-81
2023/01/17 00:03:08;;;;;;;1.42;0.10;;;3.70;99.90;;;;;;4200543;28;20047;-82
2023/01/17 00:09:53;;;;;;;0.88;0.22;;;4.10;99.90;;;;;;4200439;28;20048;-81
2023/01/17 00:11:56;;;;;;;1.75;0.20;;;3.40;99.90;;;;;;4200036;28;20051;-81
2023/01/17 00:13:59;;;;;;;1.63;0.28;;;3.10;99.90;;;;;;4200447;28;20159;-81
2023/01/17 00:16:01;;;;;;;0.32;0.30;;;3.10;99.90;;;;;;4200846;28;20044;-82
2023/01/17 00:18:01;;;;;;;2.00;0.17;;;3.10;99.90;;;;;;4198540;28;20589;-82
2023/01/17 01:34:52;;;;;;;6.30;0.43;;;3.40;99.90;;;;;;4201182;28;20056;-83
2023/01/17 01:36:52;;;;;;;1.67;0.52;;;3.50;99.90;;;;;;4184924;28;20059;-80
2023/01/17 01:38:53;;;;;;;2.83;0.40;;;3.50;99.90;;;;;;4180716;28;20059;-80
2023/01/17 01:40:55;;;;;;;6.13;1.23;;;4.30;99.90;;;;;;4202387;28;20048;-82
2023/01/17 01:43:04;;;;;;;6.32;0.70;;;4.30;99.90;;;;;;4201850;28;20083;-83
2023/01/17 01:45:20;;;;;;;4.05;0.82;;;3.60;99.90;;;;;;4201564;28;20427;-82
2023/01/17 01:47:36;;;;;;;5.25;1.92;;;3.40;99.90;;;;;;4201487;28;20123;-80
2023/01/17 01:49:37;;;;;;;1.83;0.50;;;3.40;99.90;;;;;;4185430;28;20067;-81
2023/01/17 01:51:41;;;;;;;2.10;0.30;;;3.30;99.90;;;;;;4202510;28;20542;-81
2023/01/17 01:53:46;;;;;;;2.90;0.40;;;4.20;99.90;;;;;;4190401;28;20045;-81
2023/01/17 01:55:49;;;;;;;2.38;0.50;;;4.10;99.90;;;;;;4200862;28;20060;-81
2023/01/17 01:57:55;;;;;;;1.63;0.57;;;3.90;99.90;;;;;;4201646;28;20076;-82
2023/01/17 02:00:06;;;;;;;5.93;0.65;;;3.20;99.90;;;;;;4202013;28;20041;-81
2023/01/17 02:02:07;;;;;;;2.88;0.43;;;3.30;99.90;;;;;;4199626;28;20554;-81
2023/01/17 02:04:09;;;;;;;4.80;1.00;;;3.30;99.90;;;;;;4201246;28;20577;-81
2023/01/17 02:06:21;;;;;;;5.78;0.63;;;4.60;99.90;;;;;;4202068;28;20066;-81
2023/01/17 02:08:22;;;;;;;4.28;1.33;;;3.30;99.90;;;;;;4200729;28;20044;-81
2023/01/17 02:10:23;;;;;;;7.32;0.60;;;3.30;99.90;;;;;;4201590;28;20096;-81
2023/01/17 02:12:24;;;;;;;9.52;0.73;;;3.70;99.90;;;;;;4200507;28;20041;-81
2023/01/17 02:14:26;;;;;;;6.63;1.10;;;3.40;99.90;;;;;;4200484;28;20047;-81
2023/01/17 02:16:43;;;;;;;3.20;0.40;;;4.10;99.90;;;;;;4200932;28;20480;-81
2023/01/17 02:19:08;;;;;;;9.45;0.98;;;3.40;99.90;;;;;;4190704;28;20056;-81
2023/01/17 02:21:11;;;;;;;5.28;1.33;;;3.40;99.90;;;;;;4200991;28;20060;-81
2023/01/17 02:23:12;;;;;;;8.52;1.95;;;3.40;99.90;;;;;;4200022;28;20048;-81
2023/01/17 02:25:46;;;;;;;13.20;0.60;;;4.30;99.90;;;;;;4200725;28;20054;-81
2023/01/17 02:28:34;;;;;;;7.90;0.95;;;3.50;99.90;;;;;;4201084;28;20051;-81
2023/01/17 02:30:44;;;;;;;7.82;0.90;;;3.50;99.90;;;;;;4198010;28;20485;-81
2023/01/17 02:32:54;;;;;;;3.30;0.57;;;3.60;99.90;;;;;;4199208;28;20048;-81
2023/01/17 02:35:48;;;;;;;4.68;1.15;;;3.50;99.90;;;;;;4189954;28;20040;-81
2023/01/17 02:38:04;;;;;;;5.78;0.85;;;3.50;99.90;;;;;;4140409;28;20541;-82
2023/01/17 02:40:11;;;;;;;1.25;0.28;;;3.50;99.90;;;;;;4199045;28;20505;-81
2023/01/17 02:42:16;;;;;;;4.78;0.30;;;3.40;99.90;;;;;;4200794;28;20045;-81
2023/01/17 02:44:19;;;;;;;4.05;0.57;;;4.20;99.90;;;;;;4201675;28;20052;-81
2023/01/17 02:46:20;;;;;;;2.28;0.65;;;3.50;99.90;;;;;;4199654;28;20048;-81
2023/01/17 02:48:25;;;;;;;4.05;1.30;;;3.50;99.90;;;;;;4201385;28;20052;-81
2023/01/17 02:50:47;;;;;;;4.38;0.52;;;4.20;99.90;;;;;;4201008;28;20052;-82
2023/01/17 02:52:58;;;;;;;4.38;0.40;;;3.40;99.90;;;;;;4198659;28;20056;-81
2023/01/17 02:55:29;;;;;;;4.93;0.28;;;3.40;99.90;;;;;;4200534;28;20764;-81
2023/01/17 02:58:08;;;;;;;3.13;0.50;;;3.40;99.90;;;;;;4193144;28;20044;-82
2023/01/17 03:00:19;;;;;;;2.50;0.43;;;3.40;99.90;;;;;;4200944;28;20044;-81
2023/01/17 03:02:42;;;;;;;3.72;0.50;;;3.40;99.90;;;;;;4200891;28;20104;-81
2023/01/17 03:04:49;;;;;;;4.55;0.80;;;3.40;99.90;;;;;;4200954;28;20488;-81
2023/01/17 03:06:55;;;;;;;2.78;0.57;;;3.40;99.90;;;;;;4197865;28;20093;-81
2023/01/17 03:08:56;;;;;;;10.20;0.77;;;4.30;99.90;;;;;;4200701;28;20444;-81
2023/01/17 03:10:57;;;;;;;3.15;0.60;;;3.40;99.90;;;;;;4200671;28;20036;-81
2023/01/17 03:13:01;;;;;;;3.45;0.45;;;3.50;99.90;;;;;;4200606;28;20051;-82
2023/01/17 03:15:03;;;;;;;5.82;0.52;;;3.50;99.90;;;;;;4200727;28;20086;-82
2023/01/17 03:17:04;;;;;;;3.65;0.63;;;3.50;99.90;;;;;;4200832;28;20048;-81
2023/01/17 03:19:04;;;;;;;7.72;1.08;;;4.70;99.90;;;;;;4200402;28;20055;-82
2023/01/17 03:21:06;;;;;;;5.95;1.23;;;3.40;99.90;;;;;;4200673;28;20075;-81
2023/01/17 03:23:08;;;;;;;14.52;1.20;;;3.50;99.90;;;;;;4198911;28;20048;-81
2023/01/17 03:25:09;;;;;;;7.47;0.70;;;3.40;99.90;;;;;;4200518;28;20084;-82
2023/01/17 03:27:10;;;;;;;3.97;0.52;;;3.60;99.90;;;;;;4200702;28;20045;-81
2023/01/17 03:29:13;;;;;;;9.27;0.88;;;4.10;99.90;;;;;;4200525;28;20113;-81
2023/01/17 03:31:16;;;;;;;5.47;0.60;;;3.30;99.90;;;;;;4199219;28;20053;-81
2023/01/17 03:33:18;;;;;;;6.20;0.63;;;3.50;99.90;;;;;;4198966;28;20553;-81
2023/01/17 03:35:19;;;;;;;5.88;0.73;;;4.30;99.90;;;;;;4199430;28;20052;-81
2023/01/17 03:37:21;;;;;;;9.13;0.57;;;3.20;99.90;;;;;;4200391;28;20052;-81
2023/01/17 03:39:23;;;;;;;5.15;0.40;;;3.20;99.90;;;;;;4200226;28;20033;-81
2023/01/17 03:41:24;;;;;;;6.97;0.80;;;3.20;99.90;;;;;;4199893;28;20044;-81
2023/01/17 03:43:26;;;;;;;0.80;0.32;;;3.80;99.90;;;;;;4198974;28;20051;-81
2023/01/17 03:45:27;;;;;;;7.55;0.50;;;2.90;99.90;;;;;;4199906;28;20115;-81
2023/01/17 03:47:29;;;;;;;4.60;0.63;;;4.00;99.90;;;;;;4199539;28;20055;-81
2023/01/17 03:49:31;;;;;;;3.50;1.02;;;3.00;99.90;;;;;;4200618;28;20536;-81
2023/01/17 03:51:31;;;;;;;1.42;0.30;;;2.70;99.90;;;;;;4200218;28;20036;-81
2023/01/17 03:53:32;;;;;;;4.75;0.55;;;3.80;99.90;;;;;;4199957;28;20044;-81
2023/01/17 03:55:34;;;;;;;7.82;0.80;;;4.50;99.90;;;;;;4198616;28;20056;-81
2023/01/17 03:57:35;;;;;;;5.55;0.60;;;3.00;99.90;;;;;;4200090;28;20036;-82
2023/01/17 03:59:36;;;;;;;6.10;1.50;;;3.40;99.90;;;;;;4200088;28;20216;-82
2023/01/17 04:01:37;;;;;;;4.03;1.50;;;3.00;99.90;;;;;;4199870;28;20083;-81
2023/01/17 04:03:39;;;;;;;6.95;1.23;;;2.90;99.90;;;;;;4199775;28;20048;-81
2023/01/17 04:05:40;;;;;;;12.90;1.35;;;2.90;99.90;;;;;;4199225;28;20152;-81
2023/01/17 04:07:41;;;;;;;7.97;0.60;;;4.20;99.90;;;;;;4199503;28;20049;-81
2023/01/17 04:09:42;;;;;;;7.88;0.60;;;2.80;99.90;;;;;;4199731;28;20095;-81
2023/01/17 04:11:43;;;;;;;14.23;2.30;;;2.80;99.90;;;;;;4199787;28;20040;-81
2023/01/17 04:13:45;;;;;;;8.07;0.63;;;4.00;99.90;;;;;;4199448;28;20044;-81
2023/01/17 04:15:48;;;;;;;6.38;0.75;;;3.90;99.90;;;;;;4199991;28;20066;-81
2023/01/17 04:17:49;;;;;;;4.43;1.13;;;2.80;99.90;;;;;;4182177;28;20124;-81
2023/01/17 04:19:50;;;;;;;7.50;1.48;;;2.70;99.90;;;;;;4199512;28;20473;-81
2023/01/17 04:21:51;;;;;;;6.55;1.23;;;2.70;99.90;;;;;;4199917;28;20131;-81
2023/01/17 04:23:52;;;;;;;9.52;0.80;;;2.70;99.90;;;;;;4200191;28;20417;-82
2023/01/17 04:25:54;;;;;;;5.63;0.65;;;2.70;99.90;;;;;;4200272;28;20040;-82
2023/01/17 04:27:55;;;;;;;3.50;0.38;;;4.20;99.90;;;;;;4198725;28;20119;-82
2023/01/17 04:29:56;;;;;;;9.02;0.73;;;3.80;99.90;;;;;;4199945;28;20416;-82
2023/01/17 04:31:58;;;;;;;3.85;1.02;;;2.60;99.90;;;;;;4202714;28;20048;-82
2023/01/17 04:34:00;;;;;;;3.28;0.40;;;4.20;99.90;;;;;;4203867;28;20045;-82
2023/01/17 04:36:00;;;;;;;6.63;1.25;;;2.50;99.90;;;;;;4203873;28;20055;-82
2023/01/17 04:38:02;;;;;;;4.00;0.38;;;4.10;99.90;;;;;;4203478;28;20049;-82
2023/01/17 04:40:04;;;;;;;5.03;0.52;;;2.40;99.90;;;;;;4204276;28;20094;-82
2023/01/17 04:42:06;;;;;;;8.35;1.48;;;2.40;99.90;;;;;;4203653;28;20063;-82
2023/01/17 04:44:06;;;;;;;4.93;0.55;;;2.40;99.90;;;;;;4203926;28;20048;-82
2023/01/17 04:46:08;;;;;;;4.40;0.98;;;3.40;99.90;;;;;;4203294;28;20098;-82
2023/01/17 04:48:11;;;;;;;5.93;0.60;;;2.30;99.90;;;;;;4202632;28;20063;-82
2023/01/17 04:50:13;;;;;;;5.47;0.70;;;3.20;99.90;;;;;;4203174;28;20184;-82
2023/01/17 04:52:17;;;;;;;2.85;0.30;;;2.30;99.90;;;;;;4203811;28;20075;-82
2023/01/17 04:54:18;;;;;;;9.75;0.80;;;2.30;99.90;;;;;;4203467;28;20048;-82
2023/01/17 04:56:18;;;;;;;2.35;0.85;;;2.20;99.90;;;;;;4204315;28;20079;-82
2023/01/17 04:58:20;;;;;;;1.60;0.30;;;2.00;99.90;;;;;;4202557;28;20047;-82
2023/01/17 05:00:22;;;;;;;12.95;1.33;;;2.20;99.90;;;;;;4204031;28;20544;-82
2023/01/17 05:02:22;;;;;;;8.52;0.70;;;2.20;99.90;;;;;;4204214;28;20068;-82
2023/01/17 05:04:23;;;;;;;3.65;0.60;;;2.20;99.90;;;;;;4204149;28;20047;-82
2023/01/17 05:06:25;;;;;;;4.65;0.80;;;1.90;99.90;;;;;;4204206;28;20583;-82
2023/01/17 05:08:26;;;;;;;3.13;0.45;;;2.10;99.90;;;;;;4204351;28;20040;-82
2023/01/17 05:10:27;;;;;;;8.98;1.30;;;2.10;99.90;;;;;;4204003;28;20047;-82
2023/01/17 05:12:29;;;;;;;4.28;0.80;;;2.10;99.90;;;;;;4204689;28;20045;-81
2023/01/17 05:14:33;;;;;;;2.97;1.45;;;2.00;99.90;;;;;;4205162;28;20055;-81
2023/01/17 05:16:34;;;;;;;3.70;0.40;;;2.00;99.90;;;;;;4203459;28;20045;-81
2023/01/17 05:18:36;;;;;;;3.90;0.57;;;1.70;99.90;;;;;;4205109;28;20040;-81
2023/01/17 05:20:37;;;;;;;0.65;0.20;;;3.40;99.90;;;;;;4204242;28;20040;-81
2023/01/17 05:22:37;;;;;;;6.43;0.30;;;2.00;99.90;;;;;;4204703;28;20565;-81
2023/01/17 05:24:40;;;;;;;4.60;0.52;;;3.40;99.90;;;;;;4204521;28;20071;-82
2023/01/17 05:26:44;;;;;;;6.57;0.70;;;2.80;99.90;;;;;;4204816;28;20041;-81
2023/01/17 05:28:45;;;;;;;5.30;0.60;;;3.00;99.90;;;;;;4204407;28;20060;-82
2023/01/17 05:30:47;;;;;;;4.28;0.45;;;1.90;99.90;;;;;;4204196;28;20504;-82
2023/01/17 05:32:53;;;;;;;2.25;1.17;;;1.90;99.90;;;;;;4204990;28;20090;-81
2023/01/17 05:35:01;;;;;;;3.30;0.40;;;1.90;99.90;;;;;;4203654;28;20036;-81
2023/01/17 05:37:02;;;;;;;2.28;0.50;;;1.90;99.90;;;;;;4202768;28;20040;-81
2023/01/17 05:39:03;;;;;;;4.22;0.80;;;3.20;99.90;;;;;;4204662;28;20036;-82
2023/01/17 05:41:04;;;;;;;6.32;0.73;;;1.90;99.90;;;;;;4202932;28;20052;-81
2023/01/17 05:43:05;;;;;;;4.25;0.35;;;1.90;99.90;;;;;;4202931;28;20100;-81
2023/01/17 05:45:06;;;;;;;2.33;0.40;;;1.90;99.90;;;;;;4204657;28;20036;-81
2023/01/17 05:47:07;;;;;;;6.82;1.52;;;1.90;99.90;;;;;;4204327;28;20069;-81
2023/01/17 05:49:10;;;;;;;4.30;0.43;;;2.00;99.90;;;;;;4204302;28;20052;-81
2023/01/17 05:51:11;;;;;;;2.45;0.40;;;1.80;99.90;;;;;;4205178;28;20058;-81
2023/01/17 05:53:15;;;;;;;1.13;0.45;;;3.20;99.90;;;;;;4203782;28;20068;-81
2023/01/17 05:55:15;;;;;;;13.75;1.38;;;1.70;99.90;;;;;;4203425;28;20053;-81
2023/01/17 05:57:19;;;;;;;4.88;0.40;;;1.80;99.90;;;;;;4206933;28;20476;-81
2023/01/17 05:59:20;;;;;;;3.33;0.47;;;1.80;99.90;;;;;;4205898;28;20485;-81
2023/01/17 06:01:25;;;;;;;6.55;1.85;;;2.70;99.90;;;;;;4204775;28;20047;-81
2023/01/17 06:03:28;;;;;;;5.63;0.85;;;1.80;99.90;;;;;;4204855;28;20052;-80
2023/01/17 06:05:30;;;;;;;1.23;0.35;;;1.80;99.90;;;;;;4205879;28;20044;-80
2023/01/17 06:07:33;;;;;;;3.67;0.50;;;1.70;99.90;;;;;;4206288;28;20032;-80
2023/01/17 06:09:34;;;;;;;1.48;0.40;;;1.70;99.90;;;;;;4206756;28;20051;-80
2023/01/17 06:11:37;;;;;;;9.90;0.90;;;1.70;99.90;;;;;;4206515;28;20032;-80
2023/01/17 06:13:39;;;;;;;5.18;0.43;;;2.90;99.90;;;;;;4207217;28;20084;-79
2023/01/17 06:15:40;;;;;;;4.28;1.00;;;2.40;99.90;;;;;;4201791;28;20053;-80
2023/01/17 06:17:43;;;;;;;1.02;0.20;;;1.60;99.90;;;;;;4196365;28;20166;-79
2023/01/17 06:19:44;;;;;;;4.78;0.60;;;1.60;99.90;;;;;;4206582;28;20521;-80
2023/01/17 06:21:46;;;;;;;7.75;0.55;;;1.60;99.90;;;;;;4207491;28;20064;-80
2023/01/17 06:23:48;;;;;;;1.85;0.40;;;1.60;99.90;;;;;;4206871;28;20559;-80
2023/01/17 06:25:51;;;;;;;3.58;0.40;;;1.40;99.90;;;;;;4206922;28;20298;-80
2023/01/17 06:27:54;;;;;;;0.63;0.22;;;1.60;99.90;;;;;;4206410;28;20041;-81
2023/01/17 06:29:54;;;;;;;7.07;1.13;;;1.60;99.90;;;;;;4205732;28;20054;-81
2023/01/17 06:32:01;;;;;;;6.10;0.57;;;1.60;99.90;;;;;;4205765;28;20143;-81
2023/01/17 06:34:04;;;;;;;6.70;0.55;;;1.60;99.90;;;;;;4206370;28;20116;-82
2023/01/17 06:36:05;;;;;;;7.63;1.63;;;1.60;99.90;;;;;;4201267;28;20079;-83
2023/01/17 06:38:18;;;;;;;1.15;0.40;;;1.60;99.90;;;;;;4194591;28;20044;-83
2023/01/17 06:40:23;;;;;;;4.57;0.55;;;1.60;99.90;;;;;;4200512;28;20089;-82
2023/01/17 06:42:25;;;;;;;11.50;1.35;;;2.50;99.90;;;;;;4205148;28;20537;-81
2023/01/17 06:44:26;;;;;;;11.02;1.05;;;1.60;99.90;;;;;;4204942;28;20073;-81
2023/01/17 06:46:27;;;;;;;0.55;0.50;;;1.60;99.90;;;;;;4205053;28;20036;-81
2023/01/17 06:48:28;;;;;;;8.95;0.68;;;2.50;99.90;;;;;;4205874;28;20044;-82
2023/01/17 06:50:30;;;;;;;4.78;1.00;;;2.10;99.90;;;;;;4206373;28;20047;-83
2023/01/17 06:52:31;;;;;;;5.07;0.47;;;1.50;99.90;;;;;;4208632;28;20052;-81
2023/01/17 06:54:32;;;;;;;10.30;2.25;;;1.50;99.90;;;;;;4205380;28;20092;-83
2023/01/17 06:56:33;;;;;;;7.40;1.58;;;1.50;99.90;;;;;;4204213;28;20051;-84
2023/01/17 06:58:34;;;;;;;2.60;0.47;;;1.60;99.90;;;;;;4204689;28;20044;-83
2023/01/17 07:00:37;;;;;;;3.05;0.40;;;3.20;99.90;;;;;;4204791;28;20044;-83
2023/01/17 07:02:48;;;;;;;3.95;0.50;;;1.50;99.90;;;;;;4204039;28;20044;-83
2023/01/17 07:04:48;;;;;;;2.53;0.43;;;1.50;99.90;;;;;;4205590;28;20052;-81
2023/01/17 07:06:49;;;;;;;7.72;0.50;;;2.10;99.90;;;;;;4205664;28;20048;-83
2023/01/17 07:08:55;;;;;;;2.65;0.43;;;2.60;99.90;;;;;;4205714;28;20040;-83
2023/01/17 07:11:04;;;;;;;1.73;0.68;;;1.60;99.90;;;;;;4205173;28;20048;-82
2023/01/17 07:13:05;;;;;;;12.50;1.42;;;1.60;99.90;;;;;;4205412;28;20051;-82
2023/01/17 07:15:06;;;;;;;2.50;0.70;;;2.50;99.90;;;;;;4203949;28;20100;-82
2023/01/17 07:17:09;;;;;;;0.98;0.50;;;1.60;99.90;;;;;;4204233;28;20032;-82
2023/01/17 07:19:10;;;;;;;2.30;0.43;;;2.20;99.90;;;;;;4204156;28;20055;-82
2023/01/17 07:21:13;;;;;;;5.00;0.20;;;1.30;99.90;;;;;;4203940;28;20055;-82
2023/01/17 07:23:15;;;;;;;3.03;0.20;;;1.70;99.90;;;;;;4202101;28;20123;-82
2023/01/17 07:25:18;;;;;;;3.10;0.90;;;1.90;99.90;;;;;;4204123;28;20082;-82
2023/01/17 07:27:29;;;;;;;3.25;0.47;;;1.60;99.90;;;;;;4203054;28;20044;-82
2023/01/17 07:29:29;;;;;;;1.63;0.32;;;2.70;99.90;;;;;;4203006;28;20094;-81
2023/01/17 07:31:36;;;;;;;0.90;0.20;;;1.60;99.90;;;;;;4201778;28;20044;-82
2023/01/17 07:33:40;;;;;;;4.57;0.40;;;1.60;99.90;;;;;;4205073;28;20495;-80
2023/01/17 07:35:41;;;;;;;4.47;0.40;;;1.60;99.90;;;;;;4204887;28;20044;-81
2023/01/17 07:37:47;;;;;;;1.80;0.30;;;3.10;99.90;;;;;;4204836;28;20047;-82
2023/01/17 07:39:50;;;;;;;1.95;0.60;;;1.50;99.90;;;;;;4205050;28;20052;-82
2023/01/17 07:41:56;;;;;;;5.13;0.32;;;1.50;99.90;;;;;;4205532;28;20165;-81
2023/01/17 07:43:59;;;;;;;5.50;0.68;;;2.00;99.90;;;;;;4205993;28;20049;-81
2023/01/17 07:46:01;;;;;;;2.53;0.60;;;1.50;99.90;;;;;;4204759;28;20044;-81
2023/01/17 07:48:01;;;;;;;0.50;0.40;;;1.50;99.90;;;;;;4205149;28;20040;-81
2023/01/17 07:50:04;;;;;;;3.47;0.60;;;1.50;99.90;;;;;;4205113;28;20497;-82
2023/01/17 07:52:08;;;;;;;2.10;0.28;;;1.50;99.90;;;;;;4204988;28;20116;-81
2023/01/17 07:54:10;;;;;;;0.88;0.38;;;1.50;99.90;;;;;;4205138;28;20044;-81
2023/01/17 07:56:11;;;;;;;5.38;0.40;;;2.00;99.90;;;;;;4204180;28;20045;-81
2023/01/17 07:58:13;;;;;;;5.82;0.55;;;1.50;99.90;;;;;;4205756;28;20078;-79
2023/01/17 08:00:14;;;;;;;2.97;0.32;;;1.50;99.90;;;;;;4202369;28;20044;-80
2023/01/17 08:02:20;;;;;;;2.97;0.50;;;1.50;99.90;;;;;;4200625;28;20076;-80
2023/01/17 08:04:25;;;;;;;4.40;0.30;;;1.50;99.90;;;;;;4205055;28;20131;-80
2023/01/17 08:06:28;;;;;;;2.65;0.32;;;1.50;99.90;;;;;;4204741;28;20525;-81
2023/01/17 08:08:29;;;;;;;3.63;0.40;;;2.60;99.90;;;;;;4199662;28;20040;-81
2023/01/17 08:10:34;;;;;;;3.28;0.40;;;1.50;99.90;;;;;;4204448;28;20076;-81
2023/01/17 08:12:37;;;;;;;9.95;0.40;;;2.70;99.90;;;;;;4204520;28;20052;-81
2023/01/17 08:14:38;;;;;;;3.88;0.68;;;3.00;99.90;;;;;;4203318;28;20096;-81
2023/01/17 08:16:39;;;;;;;3.17;0.52;;;1.40;99.90;;;;;;4202641;28;20114;-81
2023/01/17 08:18:41;;;;;;;3.55;0.30;;;1.30;99.90;;;;;;4204491;28;20044;-80
2023/01/17 08:20:43;;;;;;;1.10;0.30;;;1.00;99.90;;;;;;4205668;28;20056;-80
2023/01/17 08:22:45;;;;;;;3.95;0.60;;;1.30;99.90;;;;;;4205055;28;20505;-80
2023/01/17 08:24:47;;;;;;;2.38;0.30;;;1.40;99.90;;;;;;4205450;28;20044;-80
2023/01/17 08:26:48;;;;;;;2.70;1.00;;;2.40;99.90;;;;;;4206441;28;20505;-81
2023/01/17 08:28:55;;;;;;;3.08;0.57;;;2.60;99.90;;;;;;4203929;28;20044;-81
2023/01/17 08:30:56;;;;;;;2.15;0.50;;;1.50;99.90;;;;;;4191709;28;20041;-81
2023/01/17 08:32:59;;;;;;;5.10;0.38;;;1.50;99.90;;;;;;4206078;28;20094;-80
2023/01/17 08:34:59;;;;;;;1.75;0.80;;;2.60;99.90;;;;;;4204245;28;20056;-80
2023/01/17 08:37:00;;;;;;;7.93;0.80;;;1.70;99.90;;;;;;4205507;28;20045;-80
2023/01/17 08:39:03;;;;;;;2.75;0.43;;;1.60;99.90;;;;;;4204881;28;20075;-80
2023/01/17 08:41:04;;;;;;;2.70;0.50;;;1.70;99.90;;;;;;4204690;28;20041;-80
2023/01/17 08:43:05;;;;;;;2.92;0.32;;;1.70;99.90;;;;;;4204381;28;20068;-79
2023/01/17 08:45:07;;;;;;;6.47;0.50;;;1.80;99.90;;;;;;4188627;28;20051;-80
2023/01/17 08:47:09;;;;;;;3.72;1.15;;;2.00;99.90;;;;;;4203186;28;20109;-81
2023/01/17 08:49:11;;;;;;;2.15;0.40;;;2.30;99.90;;;;;;4202857;28;20041;-80
2023/01/17 08:51:18;;;;;;;3.97;0.40;;;3.60;99.90;;;;;;4201090;28;20496;-80
2023/01/17 08:53:20;;;;;;;2.63;0.70;;;2.70;99.90;;;;;;4183796;28;20059;-80
2023/01/17 08:55:22;;;;;;;2.45;0.40;;;3.00;99.90;;;;;;4201409;28;20402;-81
2023/01/17 08:57:23;;;;;;;3.10;0.35;;;4.20;99.90;;;;;;4200485;28;20404;-81
2023/01/17 08:59:23;;;;;;;1.27;0.30;;;3.40;99.90;;;;;;4201871;28;20040;-80
2023/01/17 09:01:24;;;;;;;4.65;0.82;;;3.70;99.90;;;;;;4212532;28;20105;-80
2023/01/17 09:03:25;;;;;;;5.13;0.50;;;4.00;99.90;;;;;;4213220;28;20050;-81
2023/01/17 09:05:27;;;;;;;3.85;0.50;;;4.20;99.90;;;;;;4211707;28;20044;-81
2023/01/17 09:07:27;;;;;;;7.30;1.02;;;4.60;99.90;;;;;;4202484;28;20040;-81
2023/01/17 09:09:29;;;;;;;5.38;0.55;;;4.40;99.90;;;;;;4198908;28;20471;-81
2023/01/17 09:11:30;;;;;;;1.10;0.28;;;4.10;99.90;;;;;;4198188;28;20087;-81
2023/01/17 09:13:37;;;;;;;3.40;0.65;;;4.70;99.90;;;;;;4198849;28;20044;-81
2023/01/17 09:15:38;;;;;;;4.38;0.47;;;3.80;99.90;;;;;;4198933;28;20067;-81
2023/01/17 09:17:39;;;;;;;2.72;0.25;;;3.80;99.90;;;;;;4200810;28;20044;-81
2023/01/17 09:19:43;;;;;;;4.78;0.40;;;3.70;99.90;;;;;;4201690;28;20044;-82
2023/01/17 09:21:44;;;;;;;2.30;1.00;;;4.60;99.90;;;;;;4202655;28;20048;-81
2023/01/17 09:23:45;;;;;;;2.30;0.75;;;5.00;99.90;;;;;;4202453;28;20495;-81
2023/01/17 09:25:57;;;;;;;2.97;0.82;;;5.80;99.90;;;;;;4202121;28;20447;-81
2023/01/17 09:27:57;;;;;;;1.42;0.90;;;6.70;99.90;;;;;;4201753;28;20048;-81
2023/01/17 09:29:58;;;;;;;2.90;0.63;;;7.40;99.90;;;;;;4200958;28;20044;-81
2023/01/17 09:31:59;;;;;;;3.63;0.60;;;8.00;99.90;;;;;;4199831;28;20546;-80
2023/01/17 09:34:01;;;;;;;2.65;0.90;;;8.90;99.90;;;;;;4200371;28;20055;-85
2023/01/17 09:36:04;;;;;;;9.30;0.90;;;9.40;99.90;;;;;;4200471;28;20051;-81
2023/01/17 09:38:05;;;;;;;2.40;1.67;;;9.80;99.90;;;;;;4200169;28;20048;-81
2023/01/17 09:40:09;;;;;;;2.53;1.02;;;10.20;99.90;;;;;;4200857;28;20078;-81
2023/01/17 09:42:34;;;;;;;2.88;0.50;;;9.80;99.90;;;;;;4196960;28;20041;-80
2023/01/17 09:44:43;;;;;;;0.68;0.13;;;8.90;99.90;;;;;;4191295;28;20044;-80
2023/01/17 09:46:45;;;;;;;;;;;7.90;99.90;;;;;;4201883;28;20048;-81
2023/01/17 09:48:46;;;;;;;0.85;0.40;;;7.50;99.90;;;;;;4196853;28;20318;-80
2023/01/17 09:50:53;;;;;;;4.57;0.85;;;7.90;99.90;;;;;;4184781;28;20037;-80
2023/01/17 09:53:11;;;;;;;0.40;0.30;;;8.50;99.90;;;;;;4184721;28;20182;-81
2023/01/17 09:55:14;;;;;;;5.03;1.33;;;8.90;99.90;;;;;;4183360;28;20183;-80
2023/01/17 09:57:29;;;;;;;2.67;0.30;;;9.30;99.90;;;;;;4183590;28;20056;-81
2023/01/17 10:00:11;;;;;;;0.65;0.45;;;9.50;99.90;;;;;;4182300;28;20056;-80
2023/01/17 10:02:23;;;;;;;0.20;0.20;;;9.40;99.90;;;;;;4148917;28;20222;-81
2023/01/17 10:04:24;;;;;;;1.02;0.00;;;8.50;99.90;;;;;;4148656;28;20086;-80
2023/01/17 10:06:35;;;;;;;0.65;0.10;;;7.80;99.90;;;;;;4150802;28;20046;-80
2023/01/17 10:08:52;;;;;;;0.00;0.00;;;7.10;99.90;;;;;;4183413;28;20079;-80
2023/01/17 10:11:12;;;;;;;0.28;0.10;;;6.60;99.90;;;;;;4183100;28;20076;-80
2023/01/17 10:13:23;;;;;;;0.55;0.20;;;6.10;99.90;;;;;;4192987;28;20045;-80
2023/01/17 10:16:11;;;;;;;0.65;0.08;;;5.80;99.90;;;;;;4200956;28;20063;-81
2023/01/17 10:18:20;;;;;;;0.40;0.05;;;5.60;99.90;;;;;;4173142;28;20049;-80
2023/01/17 10:20:32;;;;;;;1.25;0.30;;;5.80;99.90;;;;;;4199774;28;20083;-80
2023/01/17 10:22:36;;;;;;;0.95;0.30;;;6.00;99.90;;;;;;4200683;28;20045;-80
2023/01/17 10:25:11;;;;;;;2.38;0.22;;;6.20;99.90;;;;;;4199979;28;20036;-80
2023/01/17 10:27:22;;;;;;;2.47;0.20;;;6.30;99.90;;;;;;4199716;28;20388;-80
2023/01/17 10:29:27;;;;;;;5.63;0.20;;;6.30;99.90;;;;;;4198389;28;20045;-80
2023/01/17 10:31:34;;;;;;;3.42;0.28;;;6.00;99.90;;;;;;4200770;28;20048;-80
2023/01/17 10:34:02;;;;;;;1.77;0.52;;;5.90;99.90;;;;;;4200766;28;20408;-80
2023/01/17 10:36:19;;;;;;;2.55;0.68;;;5.10;99.90;;;;;;4200578;28;20068;-80
2023/01/17 10:38:25;;;;;;;1.17;0.28;;;4.70;99.90;;;;;;4200201;28;20064;-79
2023/01/17 10:40:49;;;;;;;2.00;0.20;;;4.30;99.90;;;;;;4200604;28;20100;-80
2023/01/17 10:42:58;;;;;;;0.60;0.30;;;4.00;99.90;;;;;;4194486;28;20048;-80
2023/01/17 10:45:12;;;;;;;0.82;0.20;;;4.00;99.90;;;;;;4188452;28;20049;-81
2023/01/17 10:47:19;;;;;;;1.23;0.30;;;4.00;99.90;;;;;;4183893;28;20409;-80
2023/01/17 10:49:23;;;;;;;0.80;0.10;;;4.30;99.90;;;;;;4198343;28;20044;-80
2023/01/17 10:51:30;;;;;;;0.35;0.22;;;4.10;99.90;;;;;;4200662;28;20477;-80
2023/01/17 10:53:56;;;;;;;0.88;0.25;;;4.40;99.90;;;;;;4201460;28;20048;-80
2023/01/17 10:55:57;;;;;;;0.77;0.20;;;4.30;99.90;;;;;;4200575;28;20055;-80
2023/01/17 10:57:58;;;;;;;0.65;0.10;;;4.80;99.90;;;;;;4199970;28;20041;-80
2023/01/17 11:00:00;;;;;;;1.27;0.22;;;4.60;99.90;;;;;;4197428;28;20044;-80
2023/01/17 11:02:05;;;;;;;1.42;0.22;;;5.40;99.90;;;;;;4183385;28;20167;-80
2023/01/17 11:04:20;;;;;;;1.63;0.22;;;6.10;99.90;;;;;;4181749;28;20559;-84
2023/01/17 11:06:25;;;;;;;2.50;0.20;;;5.50;99.90;;;;;;4186289;28;20052;-84
2023/01/17 11:08:26;;;;;;;2.83;0.65;;;6.00;99.90;;;;;;4167285;28;20057;-84
2023/01/17 11:10:35;;;;;;;2.80;1.00;;;6.10;99.90;;;;;;4182871;28;20086;-85
2023/01/17 11:12:55;;;;;;;0.65;0.10;;;6.30;99.90;;;;;;4169122;28;20052;-83
2023/01/17 11:15:09;;;;;;;3.72;0.73;;;6.40;99.90;;;;;;4199331;28;20079;-83
2023/01/17 11:17:11;;;;;;;0.45;0.30;;;6.60;99.90;;;;;;4199446;28;20047;-83
2023/01/17 11:19:14;;;;;;;1.60;0.13;;;6.60;99.90;;;;;;4198810;28;20045;-83
2023/01/17 11:21:19;;;;;;;6.20;0.28;;;6.70;99.90;;;;;;4199296;28;20102;-83
2023/01/17 11:23:30;;;;;;;1.30;0.20;;;6.50;99.90;;;;;;4192885;28;20045;-87
2023/01/17 11:25:33;;;;;;;0.55;0.40;;;6.40;99.90;;;;;;4189393;28;20051;-84
2023/01/17 11:27:40;;;;;;;1.23;0.20;;;6.50;99.90;;;;;;4199572;28;20408;-82
2023/01/17 11:29:41;;;;;;;0.80;0.30;;;6.70;99.90;;;;;;4189084;28;20536;-82
2023/01/17 11:31:43;;;;;;;3.55;0.70;;;6.90;99.90;;;;;;4181039;28;20053;-82
2023/01/17 11:33:52;;;;;;;1.60;0.20;;;6.90;99.90;;;;;;4164741;28;20042;-82
2023/01/17 11:35:53;;;;;;;4.45;0.95;;;7.10;99.90;;;;;;4182012;28;20064;-82
2023/01/17 11:37:54;;;;;;;2.85;0.70;;;7.00;99.90;;;;;;4182618;28;20048;-82
2023/01/17 11:40:26;;;;;;;3.83;0.43;;;7.20;99.90;;;;;;4181735;28;20057;-82
2023/01/17 11:42:37;;;;;;;4.80;0.90;;;7.20;99.90;;;;;;4179373;28;20523;-82
2023/01/17 11:44:38;;;;;;;2.58;0.90;;;7.30;99.90;;;;;;4198614;28;20037;-82
2023/01/17 11:46:38;;;;;;;2.75;0.30;;;7.50;99.90;;;;;;4198977;28;20052;-82
2023/01/17 11:48:39;;;;;;;1.02;0.30;;;7.50;99.90;;;;;;4196514;28;20048;-82
2023/01/17 11:50:55;;;;;;;2.83;0.40;;;7.60;99.90;;;;;;4196942;28;20040;-82
2023/01/17 11:53:05;;;;;;;5.28;0.60;;;8.20;99.90;;;;;;4196983;28;20045;-83
2023/01/17 11:55:05;;;;;;;2.25;0.60;;;7.80;99.90;;;;;;4198143;28;20569;-82
2023/01/17 11:57:23;;;;;;;3.60;0.40;;;7.90;99.90;;;;;;4198167;28;20119;-82
2023/01/17 11:59:26;;;;;;;2.53;1.23;;;7.90;99.90;;;;;;4198560;28;20086;-84
2023/01/17 12:01:43;;;;;;;5.43;0.73;;;8.00;99.90;;;;;;4198692;28;20494;-84
2023/01/17 12:03:58;;;;;;;1.75;0.40;;;8.00;99.90;;;;;;4198856;28;20054;-88
2023/01/17 12:06:36;;;;;;;3.72;0.40;;;8.00;99.90;;;;;;4187164;28;20053;-82
2023/01/17 12:09:07;;;;;;;2.65;0.55;;;7.80;99.90;;;;;;4181674;28;20047;-80
2023/01/17 12:11:17;;;;;;;1.13;0.38;;;7.90;99.90;;;;;;4180605;28;20460;-80
2023/01/17 12:14:00;;;;;;;3.25;0.60;;;8.00;99.90;;;;;;4191432;28;20052;-80
2023/01/17 12:18:55;;;;;;;1.30;0.45;;;8.30;99.90;;;;;;4183793;28;20044;-81
2023/01/17 12:21:24;;;;;;;4.10;0.70;;;9.00;99.90;;;;;;4196776;28;20160;-81
2023/01/17 12:24:02;;;;;;;1.60;0.45;;;8.20;99.90;;;;;;4197916;28;20037;-81
2023/01/17 12:26:29;;;;;;;1.65;0.30;;;8.00;99.90;;;;;;4197136;28;20040;-81